createdAt,value
2023-04-06T00:00:48.531Z,2.67
2023-04-06T00:03:35.872Z,2.93
2023-04-06T00:06:22.956Z,2.80
2023-04-06T00:09:10.043Z,2.97
2023-04-06T00:11:57.401Z,3.17
2023-04-06T00:14:44.362Z,3.60
2023-04-06T00:17:31.365Z,3.30
2023-04-06T00:20:18.732Z,3.30
2023-04-06T00:23:05.746Z,3.07
2023-04-06T00:25:52.746Z,2.90
2023-04-06T00:28:39.698Z,2.90
2023-04-06T00:31:27.154Z,2.97
2023-04-06T00:34:15.938Z,2.93
2023-04-06T00:37:02.989Z,3.40
2023-04-06T00:39:50.037Z,2.90
2023-04-06T00:42:37.304Z,2.90
2023-04-06T00:45:24.302Z,2.90
2023-04-06T00:48:11.304Z,3.13
2023-04-06T00:50:59.107Z,3.70
2023-04-06T00:53:47.001Z,3.20
2023-04-06T00:56:34.340Z,3.23
2023-04-06T00:59:21.410Z,3.00
2023-04-06T01:02:09.447Z,2.80
2023-04-06T01:05:03.415Z,3.30
2023-04-06T01:07:58.661Z,3.10
2023-04-06T01:10:48.895Z,3.20
2023-04-06T01:13:48.554Z,2.93
2023-04-06T01:16:44.520Z,2.70
2023-04-06T01:19:37.682Z,3.00
2023-04-06T01:22:25.271Z,3.13
2023-04-06T01:25:21.308Z,2.60
2023-04-06T01:28:19.652Z,2.73
2023-04-06T01:31:18.163Z,2.80
2023-04-06T01:34:09.976Z,2.70
2023-04-06T01:36:57.016Z,2.70
2023-04-06T01:39:48.210Z,2.70
2023-04-06T01:42:45.052Z,2.57
2023-04-06T01:45:36.562Z,2.93
2023-04-06T01:48:33.771Z,3.03
2023-04-06T01:51:26.754Z,2.93
2023-04-06T01:54:18.821Z,2.80
2023-04-06T01:57:26.519Z,3.03
2023-04-06T02:00:19.759Z,2.30
2023-04-06T02:03:12.870Z,2.50
2023-04-06T02:06:00.237Z,2.93
2023-04-06T02:08:53.499Z,3.00
2023-04-06T02:11:40.905Z,3.17
2023-04-06T02:14:28.147Z,2.60
2023-04-06T02:17:18.990Z,2.63
2023-04-06T02:20:06.987Z,3.00
2023-04-06T02:22:53.925Z,2.90
2023-04-06T02:25:41.873Z,2.87
2023-04-06T02:28:29.391Z,2.50
2023-04-06T02:31:16.665Z,2.70
2023-04-06T02:34:05.726Z,2.70
2023-04-06T02:36:54.108Z,2.80
2023-04-06T02:39:41.673Z,2.97
2023-04-06T02:42:30.319Z,3.10
2023-04-06T02:45:17.434Z,3.00
2023-04-06T02:48:07.751Z,2.77
2023-04-06T02:50:55.514Z,2.90
2023-04-06T02:53:42.680Z,2.93
2023-04-06T02:56:29.708Z,3.30
2023-04-06T02:59:16.810Z,2.97
2023-04-06T03:02:11.113Z,3.30
2023-04-06T03:04:58.312Z,3.20
2023-04-06T03:07:51.435Z,3.10
2023-04-06T03:10:47.189Z,3.00
2023-04-06T03:13:39.297Z,3.30
2023-04-06T03:16:26.590Z,2.60
2023-04-06T03:19:13.895Z,3.27
2023-04-06T03:22:01.007Z,2.73
2023-04-06T03:24:48.703Z,3.20
2023-04-06T03:27:35.682Z,3.33
2023-04-06T03:30:23.441Z,3.40
2023-04-06T03:33:10.426Z,3.70
2023-04-06T03:36:08.064Z,3.20
2023-04-06T03:38:59.391Z,2.90
2023-04-06T03:41:46.636Z,2.80
2023-04-06T03:44:53.881Z,3.07
2023-04-06T03:47:41.204Z,3.00
2023-04-06T03:50:29.153Z,3.27
2023-04-06T03:53:16.292Z,3.20
2023-04-06T03:56:04.876Z,3.33
2023-04-06T03:58:52.250Z,3.43
2023-04-06T04:01:41.540Z,2.83
2023-04-06T04:04:28.578Z,3.37
2023-04-06T04:07:15.633Z,3.90
2023-04-06T04:10:02.591Z,3.33
2023-04-06T04:12:50.666Z,3.17
2023-04-06T04:15:37.663Z,3.30
2023-04-06T04:18:25.135Z,3.53
2023-04-06T04:21:12.108Z,3.43
2023-04-06T04:23:59.150Z,3.60
2023-04-06T04:26:46.223Z,3.53
2023-04-06T04:29:33.311Z,3.90
2023-04-06T04:32:28.224Z,3.70
2023-04-06T04:35:17.684Z,3.80
2023-04-06T04:38:05.151Z,3.17
2023-04-06T04:40:53.619Z,3.60
2023-04-06T04:43:42.315Z,3.63
2023-04-06T04:46:29.530Z,3.80
2023-04-06T04:49:16.803Z,3.83
2023-04-06T04:52:04.445Z,4.07
2023-04-06T04:55:02.609Z,3.80
2023-04-06T04:57:51.436Z,3.93
2023-04-06T05:00:43.878Z,4.20
2023-04-06T05:03:31.188Z,3.93
2023-04-06T05:06:22.472Z,4.50
2023-04-06T05:09:09.624Z,4.07
2023-04-06T05:11:57.834Z,4.17
2023-04-06T05:14:44.995Z,3.80
2023-04-06T05:17:35.699Z,4.07
2023-04-06T05:20:23.793Z,3.67
2023-04-06T05:23:12.272Z,3.93
2023-04-06T05:25:59.724Z,4.37
2023-04-06T05:28:47.017Z,4.90
2023-04-06T05:31:34.667Z,4.83
2023-04-06T05:34:21.833Z,4.27
2023-04-06T05:37:10.522Z,4.00
2023-04-06T05:39:57.577Z,4.13
2023-04-06T05:42:45.067Z,4.97
2023-04-06T05:45:32.062Z,4.37
2023-04-06T05:48:20.104Z,4.27
2023-04-06T05:51:07.253Z,5.40
2023-04-06T05:54:03.474Z,5.63
2023-04-06T05:56:51.419Z,6.13
2023-04-06T05:59:38.616Z,6.20
2023-04-06T06:02:27.138Z,6.47
2023-04-06T06:05:14.351Z,6.23
2023-04-06T06:08:03.163Z,5.50
2023-04-06T06:10:51.119Z,6.07
2023-04-06T06:13:41.368Z,5.20
2023-04-06T06:16:29.352Z,4.90
2023-04-06T06:19:16.531Z,4.90
2023-04-06T06:22:05.982Z,4.37
2023-04-06T06:24:56.286Z,4.27
2023-04-06T06:27:44.402Z,4.10
2023-04-06T06:30:31.535Z,4.60
2023-04-06T06:33:19.884Z,4.63
2023-04-06T06:36:07.159Z,4.40
2023-04-06T06:38:54.411Z,4.33
2023-04-06T06:41:41.954Z,4.57
2023-04-06T06:44:29.745Z,4.63
2023-04-06T06:47:16.770Z,4.37
2023-04-06T06:50:05.870Z,4.00
2023-04-06T06:52:52.840Z,4.67
2023-04-06T06:55:40.451Z,4.37
2023-04-06T06:58:27.962Z,4.67
2023-04-06T07:01:14.972Z,4.93
2023-04-06T07:04:02.884Z,4.70
2023-04-06T07:06:50.327Z,4.77
2023-04-06T07:09:37.299Z,5.20
2023-04-06T07:12:24.345Z,4.60
2023-04-06T07:15:11.638Z,4.50
2023-04-06T07:18:00.369Z,4.70
2023-04-06T07:20:47.332Z,4.40
2023-04-06T07:23:35.611Z,4.60
2023-04-06T07:26:22.558Z,4.33
2023-04-06T07:29:09.515Z,4.40
2023-04-06T07:31:56.805Z,5.27
2023-04-06T07:34:45.983Z,4.70
2023-04-06T07:37:33.645Z,4.77
2023-04-06T07:40:20.768Z,5.03
2023-04-06T07:43:08.354Z,4.40
2023-04-06T07:45:58.138Z,4.83
2023-04-06T07:48:45.145Z,5.23
2023-04-06T07:51:32.262Z,4.90
2023-04-06T07:54:19.521Z,4.80
2023-04-06T07:57:06.755Z,4.73
2023-04-06T07:59:53.966Z,4.67
2023-04-06T08:02:41.048Z,4.73
2023-04-06T08:05:28.279Z,5.03
2023-04-06T08:08:15.295Z,5.03
2023-04-06T08:11:03.610Z,4.77
2023-04-06T08:13:50.573Z,4.60
2023-04-06T08:16:37.559Z,4.57
2023-04-06T08:19:24.491Z,5.07
2023-04-06T08:22:12.268Z,4.80
2023-04-06T08:24:59.258Z,4.40
2023-04-06T08:27:46.189Z,5.13
2023-04-06T08:30:33.233Z,5.23
2023-04-06T08:33:20.433Z,4.67
2023-04-06T08:36:11.586Z,4.93
2023-04-06T08:38:59.744Z,4.30
2023-04-06T08:41:46.846Z,4.90
2023-04-06T08:44:34.104Z,4.33
2023-04-06T08:47:23.215Z,4.13
2023-04-06T08:50:14.563Z,4.60
2023-04-06T08:53:02.233Z,4.30
2023-04-06T08:55:49.215Z,4.70
2023-04-06T08:58:39.890Z,4.33
2023-04-06T09:01:28.738Z,4.13
2023-04-06T09:04:16.741Z,3.87
2023-04-06T09:07:04.218Z,3.90
2023-04-06T09:09:52.623Z,4.27
2023-04-06T09:12:39.608Z,4.50
2023-04-06T09:15:26.690Z,3.77
2023-04-06T09:18:13.705Z,3.83
2023-04-06T09:21:06.449Z,3.83
2023-04-06T09:24:05.531Z,3.80
2023-04-06T09:26:52.513Z,3.67
2023-04-06T09:29:39.615Z,3.67
2023-04-06T09:32:26.601Z,3.63
2023-04-06T09:35:13.924Z,4.00
2023-04-06T09:38:12.182Z,3.77
2023-04-06T09:41:01.219Z,4.27
2023-04-06T09:43:48.623Z,4.00
2023-04-06T09:46:54.898Z,4.00
2023-04-06T09:49:48.681Z,3.80
2023-04-06T09:52:43.545Z,4.30
2023-04-06T09:55:36.072Z,3.80
2023-04-06T09:58:27.192Z,4.30
2023-04-06T10:01:18.516Z,3.80
2023-04-06T10:04:27.693Z,4.30
2023-04-06T10:07:16.542Z,4.60
2023-04-06T10:10:04.092Z,4.50
2023-04-06T10:12:51.012Z,4.40
2023-04-06T10:15:39.216Z,4.43
2023-04-06T10:18:26.526Z,4.87
2023-04-06T10:21:21.583Z,4.70
2023-04-06T10:24:11.769Z,4.83
2023-04-06T10:27:03.025Z,4.17
2023-04-06T10:29:51.178Z,4.70
2023-04-06T10:32:39.832Z,5.27
2023-04-06T10:35:38.084Z,5.40
2023-04-06T10:38:38.318Z,4.87
2023-04-06T10:41:35.385Z,4.60
2023-04-06T10:44:26.140Z,4.70
2023-04-06T10:47:19.535Z,4.73
2023-04-06T10:50:07.124Z,4.63
2023-04-06T10:53:02.156Z,5.13
2023-04-06T10:55:51.083Z,4.70
2023-04-06T10:58:38.370Z,4.43
2023-04-06T11:01:28.722Z,4.70
2023-04-06T11:04:19.600Z,4.93
2023-04-06T11:07:06.640Z,4.30
2023-04-06T11:10:12.716Z,4.77
2023-04-06T11:13:01.320Z,4.40
2023-04-06T11:15:50.056Z,4.50
2023-04-06T11:18:37.581Z,4.27
2023-04-06T11:21:47.672Z,4.80
2023-04-06T11:24:34.794Z,5.10
2023-04-06T11:27:22.273Z,4.93
2023-04-06T11:30:10.112Z,5.00
2023-04-06T11:33:02.245Z,4.83
2023-04-06T11:35:49.721Z,4.80
2023-04-06T11:38:40.868Z,4.10
2023-04-06T11:41:30.937Z,4.43
2023-04-06T11:44:33.311Z,4.37
2023-04-06T11:47:21.289Z,4.47
2023-04-06T11:50:15.121Z,4.17
2023-04-06T11:53:03.902Z,4.97
2023-04-06T11:55:51.085Z,4.53
2023-04-06T11:58:38.351Z,4.63
2023-04-06T12:01:26.002Z,4.23
2023-04-06T12:04:13.009Z,4.53
2023-04-06T12:07:00.037Z,4.10
2023-04-06T12:09:47.038Z,4.50
2023-04-06T12:12:34.039Z,4.50
2023-04-06T12:15:20.995Z,4.90
2023-04-06T12:18:08.161Z,4.37
2023-04-06T12:20:55.331Z,4.20
2023-04-06T12:23:42.302Z,4.23
2023-04-06T12:26:29.369Z,4.23
2023-04-06T12:29:16.424Z,4.70
2023-04-06T12:32:03.433Z,4.50
2023-04-06T12:34:53.132Z,4.47
2023-04-06T12:37:41.130Z,4.30
2023-04-06T12:40:28.063Z,4.50
2023-04-06T12:43:15.061Z,4.90
2023-04-06T12:46:02.031Z,4.33
2023-04-06T12:48:49.167Z,4.40
2023-04-06T12:51:36.169Z,4.20
2023-04-06T12:54:23.170Z,4.63
2023-04-06T12:57:10.374Z,5.07
2023-04-06T12:59:58.536Z,4.73
2023-04-06T13:02:48.204Z,4.53
2023-04-06T13:05:35.710Z,4.23
2023-04-06T13:08:22.677Z,4.33
2023-04-06T13:11:09.787Z,4.17
2023-04-06T13:13:56.760Z,4.67
2023-04-06T13:16:43.901Z,4.03
2023-04-06T13:19:32.133Z,3.87
2023-04-06T13:22:19.120Z,4.90
2023-04-06T13:25:06.213Z,4.40
2023-04-06T13:27:53.205Z,3.70
2023-04-06T13:30:40.423Z,3.83
2023-04-06T13:33:28.053Z,3.97
2023-04-06T13:36:17.855Z,3.40
2023-04-06T13:39:05.493Z,3.93
2023-04-06T13:41:54.766Z,3.40
2023-04-06T13:44:41.740Z,3.93
2023-04-06T13:47:29.063Z,4.30
2023-04-06T13:50:16.125Z,4.10
2023-04-06T13:53:03.067Z,4.17
2023-04-06T13:55:54.463Z,4.10
2023-04-06T13:58:41.754Z,4.67
2023-04-06T14:01:29.015Z,4.73
2023-04-06T14:04:16.041Z,4.37
2023-04-06T14:07:04.344Z,3.90
2023-04-06T14:09:51.296Z,4.83
2023-04-06T14:12:38.247Z,4.80
2023-04-06T14:15:25.455Z,4.80
2023-04-06T14:18:12.619Z,4.67
2023-04-06T14:20:59.847Z,4.60
2023-04-06T14:23:47.424Z,4.33
2023-04-06T14:26:34.461Z,4.53
2023-04-06T14:29:21.490Z,4.47
2023-04-06T14:32:08.482Z,4.20
2023-04-06T14:34:55.634Z,4.03
2023-04-06T14:37:42.699Z,4.27
2023-04-06T14:40:29.636Z,4.50
2023-04-06T14:43:17.407Z,4.40
2023-04-06T14:46:04.440Z,4.93
2023-04-06T14:48:51.865Z,3.97
2023-04-06T14:51:39.049Z,4.37
2023-04-06T14:54:26.204Z,4.43
2023-04-06T14:57:13.176Z,4.53
2023-04-06T15:00:00.387Z,4.60
2023-04-06T15:02:47.523Z,4.37
2023-04-06T15:05:35.416Z,4.60
2023-04-06T15:08:23.559Z,4.70
2023-04-06T15:11:11.715Z,4.23
2023-04-06T15:13:58.675Z,4.20
2023-04-06T15:16:45.724Z,3.87
2023-04-06T15:19:32.672Z,3.87
2023-04-06T15:22:19.684Z,4.57
2023-04-06T15:25:07.048Z,4.07
2023-04-06T15:27:55.241Z,3.90
2023-04-06T15:30:42.220Z,4.23
2023-04-06T15:33:29.214Z,3.77
2023-04-06T15:36:30.391Z,4.23
2023-04-06T15:39:17.362Z,4.00
2023-04-06T15:42:04.612Z,4.00
2023-04-06T15:44:51.728Z,3.43
2023-04-06T15:47:39.496Z,3.70
2023-04-06T15:50:27.952Z,4.13
2023-04-06T15:53:14.925Z,4.00
2023-04-06T15:56:03.909Z,3.87
2023-04-06T15:58:51.031Z,4.00
2023-04-06T16:01:38.144Z,3.83
2023-04-06T16:04:25.247Z,3.53
2023-04-06T16:07:12.304Z,3.67
2023-04-06T16:09:59.379Z,4.60
2023-04-06T16:12:46.466Z,4.40
2023-04-06T16:15:33.962Z,4.63
2023-04-06T16:18:21.269Z,4.30
2023-04-06T16:21:08.672Z,4.17
2023-04-06T16:23:57.382Z,4.80
2023-04-06T16:26:48.292Z,4.40
2023-04-06T16:29:35.845Z,4.20
2023-04-06T16:32:23.010Z,3.90
2023-04-06T16:35:10.155Z,4.93
2023-04-06T16:37:57.259Z,3.93
2023-04-06T16:40:44.313Z,3.67
2023-04-06T16:43:32.255Z,3.83
2023-04-06T16:46:19.510Z,4.10
2023-04-06T16:49:07.078Z,4.20
2023-04-06T16:51:54.032Z,4.77
2023-04-06T16:54:41.065Z,4.60
2023-04-06T16:57:29.722Z,4.43
2023-04-06T17:00:17.218Z,4.73
2023-04-06T17:03:04.330Z,4.20
2023-04-06T17:05:51.574Z,4.70
2023-04-06T17:08:38.722Z,5.00
2023-04-06T17:11:32.616Z,4.93
2023-04-06T17:14:26.816Z,5.13
2023-04-06T17:17:13.902Z,4.80
2023-04-06T17:20:00.982Z,4.37
2023-04-06T17:22:49.410Z,4.17
2023-04-06T17:25:36.412Z,3.80
2023-04-06T17:28:23.491Z,3.43
2023-04-06T17:31:11.726Z,4.17
2023-04-06T17:33:59.716Z,3.90
2023-04-06T17:36:46.811Z,3.80
2023-04-06T17:39:33.782Z,3.40
2023-04-06T17:42:21.005Z,3.13
2023-04-06T17:45:08.144Z,3.70
2023-04-06T17:47:55.231Z,3.00
2023-04-06T17:50:42.574Z,3.90
2023-04-06T17:53:34.380Z,4.00
2023-04-06T17:56:21.736Z,3.50
2023-04-06T17:59:11.318Z,3.43
2023-04-06T18:01:58.436Z,3.10
2023-04-06T18:04:45.488Z,3.33
2023-04-06T18:07:32.655Z,3.10
2023-04-06T18:10:19.702Z,3.20
2023-04-06T18:13:07.060Z,3.50
2023-04-06T18:15:54.258Z,3.53
2023-04-06T18:18:41.340Z,3.50
2023-04-06T18:21:28.460Z,3.17
2023-04-06T18:24:27.088Z,3.00
2023-04-06T18:27:21.479Z,2.97
2023-04-06T18:30:08.918Z,2.80
2023-04-06T18:32:56.052Z,3.23
2023-04-06T18:35:44.225Z,2.73
2023-04-06T18:38:31.350Z,2.60
2023-04-06T18:41:19.080Z,2.70
2023-04-06T18:44:06.262Z,2.90
2023-04-06T18:46:55.192Z,2.60
2023-04-06T18:49:42.599Z,2.90
2023-04-06T18:52:29.562Z,2.70
2023-04-06T18:55:16.658Z,2.60
2023-04-06T18:58:03.623Z,3.37
2023-04-06T19:00:50.998Z,3.07
2023-04-06T19:03:38.845Z,3.10
2023-04-06T19:06:29.423Z,3.50
2023-04-06T19:09:16.408Z,3.20
2023-04-06T19:12:03.506Z,3.80
2023-04-06T19:14:52.026Z,3.30
2023-04-06T19:17:39.292Z,3.60
2023-04-06T19:20:26.333Z,3.53
2023-04-06T19:23:13.803Z,3.50
2023-04-06T19:26:00.886Z,4.17
2023-04-06T19:28:48.194Z,3.90
2023-04-06T19:31:35.768Z,4.00
2023-04-06T19:34:23.609Z,3.60
2023-04-06T19:37:11.191Z,3.93
2023-04-06T19:39:58.143Z,3.73
2023-04-06T19:42:45.230Z,3.80
2023-04-06T19:45:32.187Z,3.70
2023-04-06T19:48:19.226Z,3.90
2023-04-06T19:51:06.859Z,4.67
2023-04-06T19:53:53.826Z,4.53
2023-04-06T19:56:40.869Z,4.33
2023-04-06T19:59:28.055Z,3.87
2023-04-06T20:02:15.205Z,4.13
2023-04-06T20:05:02.345Z,4.30
2023-04-06T20:07:50.059Z,4.50
2023-04-06T20:10:37.017Z,4.60
2023-04-06T20:13:23.999Z,4.80
2023-04-06T20:16:11.012Z,4.50
2023-04-06T20:18:58.021Z,4.67
2023-04-06T20:21:45.299Z,4.37
2023-04-06T20:24:32.287Z,4.23
2023-04-06T20:27:19.382Z,4.53
2023-04-06T20:30:07.194Z,4.70
2023-04-06T20:32:54.292Z,5.20
2023-04-06T20:35:41.365Z,4.70
2023-04-06T20:41:18.792Z,4.07
2023-04-06T20:44:06.253Z,4.20
2023-04-06T20:46:53.421Z,4.83
2023-04-06T20:49:40.565Z,4.90
2023-04-06T20:52:27.750Z,4.97
2023-04-06T20:55:15.681Z,4.87
2023-04-06T20:58:02.658Z,4.97
2023-04-06T21:00:49.746Z,4.83
2023-04-06T21:03:36.925Z,4.80
2023-04-06T21:06:27.979Z,4.53
2023-04-06T21:09:15.501Z,4.63
2023-04-06T21:12:03.285Z,4.80
2023-04-06T21:14:50.432Z,5.07
2023-04-06T21:17:37.781Z,5.30
2023-04-06T21:20:24.787Z,5.10
2023-04-06T21:23:11.734Z,5.30
2023-04-06T21:25:58.802Z,5.27
2023-04-06T21:28:46.774Z,5.27
2023-04-06T21:31:36.378Z,5.43
2023-04-06T21:34:23.468Z,5.83
2023-04-06T21:37:10.943Z,5.97
2023-04-06T21:39:57.923Z,6.53
2023-04-06T21:42:44.886Z,7.17
2023-04-06T21:45:32.892Z,7.77
2023-04-06T21:48:20.228Z,7.50
2023-04-06T21:51:07.216Z,6.63
2023-04-06T21:53:55.240Z,7.37
2023-04-06T21:56:42.208Z,7.17
2023-04-06T21:59:29.233Z,7.87
2023-04-06T22:02:16.580Z,9.00
2023-04-06T22:05:04.439Z,8.27
2023-04-06T22:07:52.266Z,8.80
2023-04-06T22:10:40.131Z,8.90
2023-04-06T22:13:28.532Z,8.80
2023-04-06T22:16:15.555Z,9.23
2023-04-06T22:19:02.580Z,8.50
2023-04-06T22:21:49.555Z,8.50
2023-04-06T22:24:36.538Z,8.27
2023-04-06T22:27:23.477Z,8.17
2023-04-06T22:30:11.020Z,7.40
2023-04-06T22:32:58.105Z,8.30
2023-04-06T22:35:45.452Z,7.97
2023-04-06T22:38:32.500Z,8.17
2023-04-06T22:41:19.460Z,8.73
2023-04-06T22:44:06.477Z,7.70
2023-04-06T22:46:53.501Z,7.70
2023-04-06T22:49:40.501Z,7.57
2023-04-06T22:52:27.544Z,7.60
2023-04-06T22:55:14.545Z,8.60
2023-04-06T22:58:01.507Z,9.23
2023-04-06T23:00:48.436Z,8.77
2023-04-06T23:03:35.464Z,8.40
2023-04-06T23:06:22.620Z,8.90
2023-04-06T23:09:09.628Z,8.10
2023-04-06T23:11:56.618Z,8.03
2023-04-06T23:14:43.601Z,8.23
2023-04-06T23:17:30.855Z,7.57
2023-04-06T23:20:17.953Z,7.77
2023-04-06T23:23:04.938Z,8.00
2023-04-06T23:25:52.240Z,8.00
2023-04-06T23:28:39.219Z,7.73
2023-04-06T23:31:26.191Z,8.10
2023-04-06T23:34:13.143Z,8.57
2023-04-06T23:37:02.941Z,8.27
2023-04-06T23:39:50.273Z,7.97
2023-04-06T23:42:37.223Z,8.03
2023-04-06T23:45:24.194Z,7.97
2023-04-06T23:48:11.322Z,8.23
2023-04-06T23:50:58.351Z,8.07
2023-04-06T23:53:46.191Z,8.27
2023-04-06T23:56:33.204Z,7.80
2023-04-06T23:59:20.264Z,8.37
